sensor_id;sensor_type;location;lat;lon;timestamp;P1;durP1;ratioP1;P2;durP2;ratioP2
22652;SDS011;11493;43.344;26.226;2023-06-24T00:00:41;8.20;;;7.22;;
22652;SDS011;11493;43.344;26.226;2023-06-24T00:03:09;8.63;;;6.70;;
22652;SDS011;11493;43.344;26.226;2023-06-24T00:05:36;8.85;;;6.75;;
22652;SDS011;11493;43.344;26.226;2023-06-24T00:08:06;8.02;;;7.22;;
22652;SDS011;11493;43.344;26.226;2023-06-24T00:10:34;8.80;;;6.30;;
22652;SDS011;11493;43.344;26.226;2023-06-24T00:13:03;7.78;;;6.97;;
22652;SDS011;11493;43.344;26.226;2023-06-24T00:15:30;10.10;;;8.07;;
22652;SDS011;11493;43.344;26.226;2023-06-24T00:17:57;13.73;;;7.50;;
22652;SDS011;11493;43.344;26.226;2023-06-24T00:20:33;13.60;;;6.90;;
22652;SDS011;11493;43.344;26.226;2023-06-24T00:23:00;9.43;;;7.32;;
22652;SDS011;11493;43.344;26.226;2023-06-24T00:25:28;9.23;;;7.28;;
22652;SDS011;11493;43.344;26.226;2023-06-24T00:27:56;9.25;;;7.53;;
22652;SDS011;11493;43.344;26.226;2023-06-24T00:30:23;12.38;;;7.60;;
22652;SDS011;11493;43.344;26.226;2023-06-24T00:32:50;11.25;;;7.60;;
22652;SDS011;11493;43.344;26.226;2023-06-24T00:35:17;9.30;;;7.80;;
22652;SDS011;11493;43.344;26.226;2023-06-24T00:37:46;12.55;;;8.02;;
22652;SDS011;11493;43.344;26.226;2023-06-24T00:40:14;11.60;;;7.72;;
22652;SDS011;11493;43.344;26.226;2023-06-24T00:42:43;12.35;;;7.88;;
22652;SDS011;11493;43.344;26.226;2023-06-24T00:45:15;11.98;;;7.50;;
22652;SDS011;11493;43.344;26.226;2023-06-24T00:47:48;12.77;;;7.85;;
22652;SDS011;11493;43.344;26.226;2023-06-24T00:50:15;12.38;;;7.75;;
22652;SDS011;11493;43.344;26.226;2023-06-24T00:52:43;11.98;;;7.63;;
22652;SDS011;11493;43.344;26.226;2023-06-24T00:55:11;15.32;;;7.82;;
22652;SDS011;11493;43.344;26.226;2023-06-24T00:57:42;19.67;;;7.93;;
22652;SDS011;11493;43.344;26.226;2023-06-24T01:00:13;17.30;;;7.85;;
22652;SDS011;11493;43.344;26.226;2023-06-24T01:02:41;15.20;;;7.93;;
22652;SDS011;11493;43.344;26.226;2023-06-24T01:05:12;20.25;;;7.68;;
22652;SDS011;11493;43.344;26.226;2023-06-24T01:07:39;14.52;;;7.70;;
22652;SDS011;11493;43.344;26.226;2023-06-24T01:10:07;21.70;;;7.57;;
22652;SDS011;11493;43.344;26.226;2023-06-24T01:12:37;11.02;;;8.25;;
22652;SDS011;11493;43.344;26.226;2023-06-24T01:15:07;11.10;;;7.82;;
22652;SDS011;11493;43.344;26.226;2023-06-24T01:17:52;8.23;;;7.43;;
22652;SDS011;11493;43.344;26.226;2023-06-24T01:20:49;11.77;;;7.78;;
22652;SDS011;11493;43.344;26.226;2023-06-24T01:23:35;12.57;;;7.75;;
22652;SDS011;11493;43.344;26.226;2023-06-24T01:26:47;15.68;;;8.07;;
22652;SDS011;11493;43.344;26.226;2023-06-24T01:35:01;18.27;;;7.53;;
22652;SDS011;11493;43.344;26.226;2023-06-24T01:37:43;17.85;;;7.72;;
22652;SDS011;11493;43.344;26.226;2023-06-24T01:42:55;21.88;;;7.55;;
22652;SDS011;11493;43.344;26.226;2023-06-24T01:45:26;16.83;;;8.45;;
22652;SDS011;11493;43.344;26.226;2023-06-24T01:47:59;16.88;;;7.95;;
22652;SDS011;11493;43.344;26.226;2023-06-24T01:50:32;21.15;;;7.43;;
22652;SDS011;11493;43.344;26.226;2023-06-24T01:53:04;24.77;;;8.02;;
22652;SDS011;11493;43.344;26.226;2023-06-24T01:55:33;21.83;;;8.63;;
22652;SDS011;11493;43.344;26.226;2023-06-24T01:58:02;21.30;;;7.75;;
22652;SDS011;11493;43.344;26.226;2023-06-24T02:00:33;26.13;;;8.10;;
22652;SDS011;11493;43.344;26.226;2023-06-24T02:03:03;20.00;;;7.78;;
22652;SDS011;11493;43.344;26.226;2023-06-24T02:05:32;23.08;;;8.20;;
22652;SDS011;11493;43.344;26.226;2023-06-24T02:08:01;21.08;;;8.45;;
22652;SDS011;11493;43.344;26.226;2023-06-24T02:10:31;21.48;;;8.43;;
22652;SDS011;11493;43.344;26.226;2023-06-24T02:13:01;17.75;;;8.57;;
22652;SDS011;11493;43.344;26.226;2023-06-24T02:15:29;19.52;;;9.27;;
22652;SDS011;11493;43.344;26.226;2023-06-24T02:17:57;18.50;;;7.47;;
22652;SDS011;11493;43.344;26.226;2023-06-24T02:20:26;24.10;;;8.10;;
22652;SDS011;11493;43.344;26.226;2023-06-24T02:22:55;25.52;;;8.25;;
22652;SDS011;11493;43.344;26.226;2023-06-24T02:25:25;20.45;;;7.82;;
22652;SDS011;11493;43.344;26.226;2023-06-24T02:27:53;21.92;;;7.25;;
22652;SDS011;11493;43.344;26.226;2023-06-24T02:30:21;8.75;;;7.65;;
22652;SDS011;11493;43.344;26.226;2023-06-24T02:32:51;26.85;;;8.20;;
22652;SDS011;11493;43.344;26.226;2023-06-24T02:35:19;20.02;;;8.02;;
22652;SDS011;11493;43.344;26.226;2023-06-24T02:37:46;20.25;;;8.38;;
22652;SDS011;11493;43.344;26.226;2023-06-24T02:40:15;17.50;;;7.70;;
22652;SDS011;11493;43.344;26.226;2023-06-24T02:42:43;20.83;;;7.68;;
22652;SDS011;11493;43.344;26.226;2023-06-24T02:45:11;19.92;;;7.82;;
22652;SDS011;11493;43.344;26.226;2023-06-24T02:47:38;33.88;;;8.00;;
22652;SDS011;11493;43.344;26.226;2023-06-24T02:50:09;22.58;;;7.65;;
22652;SDS011;11493;43.344;26.226;2023-06-24T02:52:38;17.25;;;8.32;;
22652;SDS011;11493;43.344;26.226;2023-06-24T02:55:09;23.40;;;8.10;;
22652;SDS011;11493;43.344;26.226;2023-06-24T02:57:39;13.48;;;7.63;;
22652;SDS011;11493;43.344;26.226;2023-06-24T03:00:26;18.42;;;7.97;;
22652;SDS011;11493;43.344;26.226;2023-06-24T03:03:12;19.58;;;8.38;;
22652;SDS011;11493;43.344;26.226;2023-06-24T03:05:49;19.48;;;7.88;;
22652;SDS011;11493;43.344;26.226;2023-06-24T03:08:19;15.60;;;7.43;;
22652;SDS011;11493;43.344;26.226;2023-06-24T03:10:48;23.45;;;8.65;;
22652;SDS011;11493;43.344;26.226;2023-06-24T03:13:19;18.00;;;7.65;;
22652;SDS011;11493;43.344;26.226;2023-06-24T03:15:52;17.92;;;7.85;;
22652;SDS011;11493;43.344;26.226;2023-06-24T03:18:20;19.10;;;7.63;;
22652;SDS011;11493;43.344;26.226;2023-06-24T03:20:48;20.88;;;8.00;;
22652;SDS011;11493;43.344;26.226;2023-06-24T03:23:19;35.97;;;8.10;;
22652;SDS011;11493;43.344;26.226;2023-06-24T03:25:46;23.15;;;7.57;;
22652;SDS011;11493;43.344;26.226;2023-06-24T03:28:14;20.40;;;7.72;;
22652;SDS011;11493;43.344;26.226;2023-06-24T03:30:46;18.77;;;8.30;;
22652;SDS011;11493;43.344;26.226;2023-06-24T03:33:17;24.20;;;8.18;;
22652;SDS011;11493;43.344;26.226;2023-06-24T03:35:45;26.08;;;8.98;;
22652;SDS011;11493;43.344;26.226;2023-06-24T03:38:17;17.30;;;8.18;;
22652;SDS011;11493;43.344;26.226;2023-06-24T03:40:45;23.13;;;8.50;;
22652;SDS011;11493;43.344;26.226;2023-06-24T03:43:13;23.45;;;9.90;;
22652;SDS011;11493;43.344;26.226;2023-06-24T03:45:40;22.80;;;9.10;;
22652;SDS011;11493;43.344;26.226;2023-06-24T03:48:08;21.85;;;7.90;;
22652;SDS011;11493;43.344;26.226;2023-06-24T03:50:35;13.38;;;7.90;;
22652;SDS011;11493;43.344;26.226;2023-06-24T03:53:03;9.88;;;7.88;;
22652;SDS011;11493;43.344;26.226;2023-06-24T03:55:32;10.63;;;7.38;;
22652;SDS011;11493;43.344;26.226;2023-06-24T03:57:59;11.43;;;7.13;;
22652;SDS011;11493;43.344;26.226;2023-06-24T04:00:26;12.50;;;7.30;;
22652;SDS011;11493;43.344;26.226;2023-06-24T04:02:54;13.23;;;7.47;;
22652;SDS011;11493;43.344;26.226;2023-06-24T04:05:22;11.93;;;7.43;;
22652;SDS011;11493;43.344;26.226;2023-06-24T04:07:51;11.85;;;8.43;;
22652;SDS011;11493;43.344;26.226;2023-06-24T04:10:19;11.05;;;7.85;;
22652;SDS011;11493;43.344;26.226;2023-06-24T04:12:46;15.40;;;8.63;;
22652;SDS011;11493;43.344;26.226;2023-06-24T04:15:14;16.38;;;8.40;;
22652;SDS011;11493;43.344;26.226;2023-06-24T04:17:41;17.55;;;8.25;;
22652;SDS011;11493;43.344;26.226;2023-06-24T04:20:09;10.07;;;7.80;;
22652;SDS011;11493;43.344;26.226;2023-06-24T04:22:37;8.95;;;7.50;;
22652;SDS011;11493;43.344;26.226;2023-06-24T04:25:05;8.10;;;7.28;;
22652;SDS011;11493;43.344;26.226;2023-06-24T04:27:34;8.07;;;7.38;;
22652;SDS011;11493;43.344;26.226;2023-06-24T04:30:05;9.18;;;6.88;;
22652;SDS011;11493;43.344;26.226;2023-06-24T04:32:32;12.65;;;7.85;;
22652;SDS011;11493;43.344;26.226;2023-06-24T04:35:00;11.13;;;7.00;;
22652;SDS011;11493;43.344;26.226;2023-06-24T04:37:32;10.00;;;7.30;;
22652;SDS011;11493;43.344;26.226;2023-06-24T04:40:00;12.93;;;8.27;;
22652;SDS011;11493;43.344;26.226;2023-06-24T04:42:27;14.93;;;12.68;;
22652;SDS011;11493;43.344;26.226;2023-06-24T04:44:55;12.35;;;9.40;;
22652;SDS011;11493;43.344;26.226;2023-06-24T04:47:22;15.75;;;14.32;;
22652;SDS011;11493;43.344;26.226;2023-06-24T04:49:49;46.92;;;42.15;;
22652;SDS011;11493;43.344;26.226;2023-06-24T04:52:16;11.75;;;10.45;;
22652;SDS011;11493;43.344;26.226;2023-06-24T04:54:44;10.98;;;7.53;;
22652;SDS011;11493;43.344;26.226;2023-06-24T04:57:22;17.80;;;8.02;;
22652;SDS011;11493;43.344;26.226;2023-06-24T04:59:51;8.93;;;7.28;;
22652;SDS011;11493;43.344;26.226;2023-06-24T05:02:18;11.73;;;7.03;;
22652;SDS011;11493;43.344;26.226;2023-06-24T05:04:45;8.88;;;6.80;;
22652;SDS011;11493;43.344;26.226;2023-06-24T05:07:12;11.63;;;7.32;;
22652;SDS011;11493;43.344;26.226;2023-06-24T05:09:39;8.02;;;6.60;;
22652;SDS011;11493;43.344;26.226;2023-06-24T05:12:07;16.77;;;8.43;;
22652;SDS011;11493;43.344;26.226;2023-06-24T05:14:35;11.90;;;8.57;;
22652;SDS011;11493;43.344;26.226;2023-06-24T05:17:03;15.75;;;7.57;;
22652;SDS011;11493;43.344;26.226;2023-06-24T05:19:31;8.50;;;7.32;;
22652;SDS011;11493;43.344;26.226;2023-06-24T05:21:58;10.93;;;6.97;;
22652;SDS011;11493;43.344;26.226;2023-06-24T05:24:25;10.13;;;7.13;;
22652;SDS011;11493;43.344;26.226;2023-06-24T05:26:53;9.95;;;7.10;;
22652;SDS011;11493;43.344;26.226;2023-06-24T05:29:20;7.00;;;6.35;;
22652;SDS011;11493;43.344;26.226;2023-06-24T05:31:47;7.18;;;6.47;;
22652;SDS011;11493;43.344;26.226;2023-06-24T05:34:14;9.32;;;6.15;;
22652;SDS011;11493;43.344;26.226;2023-06-24T05:36:41;9.80;;;6.50;;
22652;SDS011;11493;43.344;26.226;2023-06-24T05:39:09;16.83;;;9.63;;
22652;SDS011;11493;43.344;26.226;2023-06-24T05:41:38;10.77;;;9.25;;
22652;SDS011;11493;43.344;26.226;2023-06-24T05:44:08;13.27;;;11.98;;
22652;SDS011;11493;43.344;26.226;2023-06-24T05:46:39;12.35;;;8.63;;
22652;SDS011;11493;43.344;26.226;2023-06-24T05:49:06;11.52;;;6.90;;
22652;SDS011;11493;43.344;26.226;2023-06-24T05:51:34;10.43;;;5.63;;
22652;SDS011;11493;43.344;26.226;2023-06-24T05:54:01;5.40;;;4.90;;
22652;SDS011;11493;43.344;26.226;2023-06-24T05:56:28;17.10;;;5.97;;
22652;SDS011;11493;43.344;26.226;2023-06-24T05:58:56;12.55;;;5.30;;
22652;SDS011;11493;43.344;26.226;2023-06-24T06:01:23;6.85;;;4.82;;
22652;SDS011;11493;43.344;26.226;2023-06-24T06:03:50;8.00;;;5.50;;
22652;SDS011;11493;43.344;26.226;2023-06-24T06:06:17;8.00;;;4.85;;
22652;SDS011;11493;43.344;26.226;2023-06-24T06:08:44;9.70;;;5.03;;
22652;SDS011;11493;43.344;26.226;2023-06-24T06:11:12;5.57;;;4.90;;
22652;SDS011;11493;43.344;26.226;2023-06-24T06:13:39;13.77;;;5.00;;
22652;SDS011;11493;43.344;26.226;2023-06-24T06:16:06;6.38;;;5.55;;
22652;SDS011;11493;43.344;26.226;2023-06-24T06:18:34;6.60;;;5.45;;
22652;SDS011;11493;43.344;26.226;2023-06-24T06:21:01;16.45;;;5.40;;
22652;SDS011;11493;43.344;26.226;2023-06-24T06:23:28;5.28;;;4.70;;
22652;SDS011;11493;43.344;26.226;2023-06-24T06:25:56;5.47;;;5.05;;
22652;SDS011;11493;43.344;26.226;2023-06-24T06:28:24;5.43;;;4.78;;
22652;SDS011;11493;43.344;26.226;2023-06-24T06:30:52;5.15;;;4.22;;
22652;SDS011;11493;43.344;26.226;2023-06-24T06:33:19;6.50;;;4.28;;
22652;SDS011;11493;43.344;26.226;2023-06-24T06:35:46;7.40;;;4.63;;
22652;SDS011;11493;43.344;26.226;2023-06-24T06:38:13;12.77;;;5.03;;
22652;SDS011;11493;43.344;26.226;2023-06-24T06:40:41;32.10;;;7.13;;
22652;SDS011;11493;43.344;26.226;2023-06-24T06:43:08;7.85;;;4.63;;
22652;SDS011;11493;43.344;26.226;2023-06-24T06:45:35;8.68;;;5.25;;
22652;SDS011;11493;43.344;26.226;2023-06-24T06:48:03;8.43;;;4.68;;
22652;SDS011;11493;43.344;26.226;2023-06-24T06:50:34;7.93;;;5.30;;
22652;SDS011;11493;43.344;26.226;2023-06-24T06:53:01;11.35;;;5.32;;
22652;SDS011;11493;43.344;26.226;2023-06-24T06:55:28;15.90;;;5.88;;
22652;SDS011;11493;43.344;26.226;2023-06-24T06:57:56;7.22;;;4.10;;
22652;SDS011;11493;43.344;26.226;2023-06-24T07:00:24;5.32;;;4.50;;
22652;SDS011;11493;43.344;26.226;2023-06-24T07:02:51;5.68;;;4.60;;
22652;SDS011;11493;43.344;26.226;2023-06-24T07:05:19;4.68;;;4.20;;
22652;SDS011;11493;43.344;26.226;2023-06-24T07:07:46;17.52;;;5.63;;
22652;SDS011;11493;43.344;26.226;2023-06-24T07:10:13;6.45;;;5.47;;
22652;SDS011;11493;43.344;26.226;2023-06-24T07:12:40;7.57;;;5.07;;
22652;SDS011;11493;43.344;26.226;2023-06-24T07:15:08;9.07;;;4.85;;
22652;SDS011;11493;43.344;26.226;2023-06-24T07:17:39;7.20;;;4.25;;
22652;SDS011;11493;43.344;26.226;2023-06-24T07:20:07;19.52;;;5.07;;
22652;SDS011;11493;43.344;26.226;2023-06-24T07:22:35;9.55;;;4.65;;
22652;SDS011;11493;43.344;26.226;2023-06-24T07:25:02;7.57;;;4.57;;
22652;SDS011;11493;43.344;26.226;2023-06-24T07:27:30;10.40;;;4.65;;
22652;SDS011;11493;43.344;26.226;2023-06-24T07:29:57;5.95;;;4.53;;
22652;SDS011;11493;43.344;26.226;2023-06-24T07:32:24;7.85;;;4.22;;
22652;SDS011;11493;43.344;26.226;2023-06-24T07:34:52;6.25;;;4.15;;
22652;SDS011;11493;43.344;26.226;2023-06-24T07:37:19;7.93;;;4.30;;
22652;SDS011;11493;43.344;26.226;2023-06-24T07:39:50;5.97;;;4.40;;
22652;SDS011;11493;43.344;26.226;2023-06-24T07:42:18;18.55;;;4.35;;
22652;SDS011;11493;43.344;26.226;2023-06-24T07:44:46;7.35;;;4.03;;
22652;SDS011;11493;43.344;26.226;2023-06-24T07:47:16;8.88;;;4.07;;
22652;SDS011;11493;43.344;26.226;2023-06-24T07:49:45;13.35;;;4.75;;
22652;SDS011;11493;43.344;26.226;2023-06-24T07:52:12;17.13;;;5.15;;
22652;SDS011;11493;43.344;26.226;2023-06-24T07:54:40;23.10;;;5.50;;
22652;SDS011;11493;43.344;26.226;2023-06-24T07:57:08;6.68;;;4.75;;
22652;SDS011;11493;43.344;26.226;2023-06-24T07:59:35;6.38;;;4.60;;
22652;SDS011;11493;43.344;26.226;2023-06-24T08:02:03;5.20;;;4.32;;
22652;SDS011;11493;43.344;26.226;2023-06-24T08:04:30;15.20;;;5.05;;
22652;SDS011;11493;43.344;26.226;2023-06-24T08:06:58;5.82;;;4.32;;
22652;SDS011;11493;43.344;26.226;2023-06-24T08:09:25;4.82;;;4.43;;
22652;SDS011;11493;43.344;26.226;2023-06-24T08:11:52;7.97;;;4.70;;
22652;SDS011;11493;43.344;26.226;2023-06-24T08:14:19;6.43;;;4.63;;
22652;SDS011;11493;43.344;26.226;2023-06-24T08:16:47;8.25;;;4.28;;
22652;SDS011;11493;43.344;26.226;2023-06-24T08:19:14;7.90;;;4.78;;
22652;SDS011;11493;43.344;26.226;2023-06-24T08:21:41;5.35;;;4.93;;
22652;SDS011;11493;43.344;26.226;2023-06-24T08:24:08;7.13;;;4.53;;
22652;SDS011;11493;43.344;26.226;2023-06-24T08:26:36;8.00;;;4.03;;
22652;SDS011;11493;43.344;26.226;2023-06-24T08:29:04;11.05;;;4.70;;
22652;SDS011;11493;43.344;26.226;2023-06-24T08:31:31;6.80;;;5.05;;
22652;SDS011;11493;43.344;26.226;2023-06-24T08:33:58;8.05;;;4.70;;
22652;SDS011;11493;43.344;26.226;2023-06-24T08:36:27;7.07;;;4.53;;
22652;SDS011;11493;43.344;26.226;2023-06-24T08:38:56;5.88;;;4.50;;
22652;SDS011;11493;43.344;26.226;2023-06-24T08:41:23;6.38;;;4.63;;
22652;SDS011;11493;43.344;26.226;2023-06-24T08:43:54;5.25;;;4.80;;
22652;SDS011;11493;43.344;26.226;2023-06-24T08:46:23;6.38;;;4.05;;
22652;SDS011;11493;43.344;26.226;2023-06-24T08:48:59;9.50;;;4.70;;
22652;SDS011;11493;43.344;26.226;2023-06-24T08:51:31;3.95;;;3.65;;
22652;SDS011;11493;43.344;26.226;2023-06-24T08:54:02;8.35;;;4.85;;
22652;SDS011;11493;43.344;26.226;2023-06-24T08:56:29;6.03;;;4.07;;
22652;SDS011;11493;43.344;26.226;2023-06-24T08:58:57;7.07;;;4.00;;
22652;SDS011;11493;43.344;26.226;2023-06-24T09:01:24;6.72;;;3.75;;
22652;SDS011;11493;43.344;26.226;2023-06-24T09:03:53;6.55;;;4.63;;
22652;SDS011;11493;43.344;26.226;2023-06-24T09:06:20;4.25;;;3.70;;
22652;SDS011;11493;43.344;26.226;2023-06-24T09:08:56;5.88;;;4.50;;
22652;SDS011;11493;43.344;26.226;2023-06-24T09:11:24;4.65;;;4.20;;
22652;SDS011;11493;43.344;26.226;2023-06-24T09:13:56;4.50;;;4.07;;
22652;SDS011;11493;43.344;26.226;2023-06-24T09:18:52;6.05;;;4.53;;
22652;SDS011;11493;43.344;26.226;2023-06-24T09:21:23;7.93;;;4.43;;
22652;SDS011;11493;43.344;26.226;2023-06-24T09:23:56;4.95;;;4.45;;
22652;SDS011;11493;43.344;26.226;2023-06-24T09:26:24;3.95;;;3.50;;
22652;SDS011;11493;43.344;26.226;2023-06-24T09:28:52;17.50;;;5.65;;
22652;SDS011;11493;43.344;26.226;2023-06-24T09:31:20;4.93;;;4.53;;
22652;SDS011;11493;43.344;26.226;2023-06-24T09:33:50;7.53;;;4.10;;
22652;SDS011;11493;43.344;26.226;2023-06-24T09:36:18;6.15;;;4.45;;
22652;SDS011;11493;43.344;26.226;2023-06-24T09:38:45;8.90;;;4.28;;
22652;SDS011;11493;43.344;26.226;2023-06-24T09:41:13;8.13;;;4.38;;
22652;SDS011;11493;43.344;26.226;2023-06-24T09:43:42;7.57;;;4.20;;
22652;SDS011;11493;43.344;26.226;2023-06-24T09:46:12;6.25;;;4.20;;
22652;SDS011;11493;43.344;26.226;2023-06-24T09:48:39;8.88;;;4.68;;
22652;SDS011;11493;43.344;26.226;2023-06-24T09:51:07;5.15;;;4.68;;
22652;SDS011;11493;43.344;26.226;2023-06-24T09:53:35;5.20;;;4.70;;
22652;SDS011;11493;43.344;26.226;2023-06-24T09:56:04;5.78;;;4.13;;
22652;SDS011;11493;43.344;26.226;2023-06-24T09:58:36;4.50;;;4.10;;
22652;SDS011;11493;43.344;26.226;2023-06-24T10:01:05;6.00;;;4.30;;
22652;SDS011;11493;43.344;26.226;2023-06-24T10:03:33;4.07;;;3.38;;
22652;SDS011;11493;43.344;26.226;2023-06-24T10:06:04;4.57;;;3.40;;
22652;SDS011;11493;43.344;26.226;2023-06-24T10:08:33;3.22;;;3.03;;
22652;SDS011;11493;43.344;26.226;2023-06-24T10:11:00;4.75;;;2.90;;
22652;SDS011;11493;43.344;26.226;2023-06-24T10:13:29;13.40;;;2.20;;
22652;SDS011;11493;43.344;26.226;2023-06-24T10:15:56;3.13;;;2.40;;
22652;SDS011;11493;43.344;26.226;2023-06-24T10:20:58;3.35;;;2.95;;
22652;SDS011;11493;43.344;26.226;2023-06-24T10:23:30;8.90;;;2.78;;
22652;SDS011;11493;43.344;26.226;2023-06-24T10:26:10;3.03;;;2.75;;
22652;SDS011;11493;43.344;26.226;2023-06-24T10:36:59;4.10;;;2.88;;
22652;SDS011;11493;43.344;26.226;2023-06-24T10:42:27;3.35;;;2.58;;
22652;SDS011;11493;43.344;26.226;2023-06-24T10:47:37;3.03;;;2.80;;
22652;SDS011;11493;43.344;26.226;2023-06-24T10:50:13;6.28;;;2.85;;
22652;SDS011;11493;43.344;26.226;2023-06-24T10:52:43;3.45;;;2.95;;
22652;SDS011;11493;43.344;26.226;2023-06-24T10:55:15;4.20;;;2.70;;
22652;SDS011;11493;43.344;26.226;2023-06-24T10:57:43;2.92;;;2.72;;
22652;SDS011;11493;43.344;26.226;2023-06-24T11:00:15;4.82;;;3.08;;
22652;SDS011;11493;43.344;26.226;2023-06-24T11:02:44;2.80;;;2.50;;
22652;SDS011;11493;43.344;26.226;2023-06-24T11:05:11;2.85;;;2.63;;
22652;SDS011;11493;43.344;26.226;2023-06-24T11:07:39;3.08;;;2.40;;
22652;SDS011;11493;43.344;26.226;2023-06-24T11:10:11;3.30;;;2.50;;
22652;SDS011;11493;43.344;26.226;2023-06-24T11:12:40;6.45;;;2.80;;
22652;SDS011;11493;43.344;26.226;2023-06-24T11:15:09;4.80;;;2.88;;
22652;SDS011;11493;43.344;26.226;2023-06-24T11:17:38;3.35;;;3.00;;
22652;SDS011;11493;43.344;26.226;2023-06-24T11:20:07;6.30;;;2.42;;
22652;SDS011;11493;43.344;26.226;2023-06-24T11:22:42;3.88;;;2.20;;
22652;SDS011;11493;43.344;26.226;2023-06-24T11:25:14;3.15;;;2.63;;
22652;SDS011;11493;43.344;26.226;2023-06-24T11:27:45;2.70;;;2.35;;
22652;SDS011;11493;43.344;26.226;2023-06-24T11:30:13;2.90;;;2.60;;
22652;SDS011;11493;43.344;26.226;2023-06-24T11:32:42;2.65;;;2.45;;
22652;SDS011;11493;43.344;26.226;2023-06-24T11:35:11;3.03;;;2.45;;
22652;SDS011;11493;43.344;26.226;2023-06-24T11:37:43;3.22;;;2.90;;
22652;SDS011;11493;43.344;26.226;2023-06-24T11:40:16;2.63;;;2.40;;
22652;SDS011;11493;43.344;26.226;2023-06-24T11:42:48;3.00;;;2.70;;
22652;SDS011;11493;43.344;26.226;2023-06-24T11:47:47;4.95;;;3.58;;
22652;SDS011;11493;43.344;26.226;2023-06-24T11:50:18;2.15;;;2.05;;
22652;SDS011;11493;43.344;26.226;2023-06-24T11:52:53;4.35;;;2.53;;
22652;SDS011;11493;43.344;26.226;2023-06-24T11:55:22;4.22;;;2.45;;
22652;SDS011;11493;43.344;26.226;2023-06-24T12:00:26;2.67;;;2.47;;
22652;SDS011;11493;43.344;26.226;2023-06-24T12:02:54;2.40;;;2.20;;
22652;SDS011;11493;43.344;26.226;2023-06-24T12:07:56;4.20;;;2.78;;
22652;SDS011;11493;43.344;26.226;2023-06-24T12:10:35;4.90;;;2.92;;
22652;SDS011;11493;43.344;26.226;2023-06-24T12:13:04;2.60;;;2.38;;
22652;SDS011;11493;43.344;26.226;2023-06-24T12:15:41;4.57;;;2.58;;
22652;SDS011;11493;43.344;26.226;2023-06-24T12:18:08;2.90;;;2.10;;
22652;SDS011;11493;43.344;26.226;2023-06-24T12:20:37;3.33;;;3.00;;
22652;SDS011;11493;43.344;26.226;2023-06-24T12:23:04;2.42;;;2.22;;
22652;SDS011;11493;43.344;26.226;2023-06-24T12:25:33;4.63;;;2.58;;
22652;SDS011;11493;43.344;26.226;2023-06-24T12:28:00;3.08;;;2.40;;
22652;SDS011;11493;43.344;26.226;2023-06-24T12:30:28;3.40;;;2.65;;
22652;SDS011;11493;43.344;26.226;2023-06-24T12:32:58;5.13;;;2.03;;
22652;SDS011;11493;43.344;26.226;2023-06-24T12:35:32;4.28;;;2.55;;
22652;SDS011;11493;43.344;26.226;2023-06-24T12:37:59;2.67;;;2.47;;
22652;SDS011;11493;43.344;26.226;2023-06-24T12:40:27;6.40;;;2.75;;
22652;SDS011;11493;43.344;26.226;2023-06-24T12:42:54;7.53;;;2.30;;
22652;SDS011;11493;43.344;26.226;2023-06-24T12:45:24;2.53;;;2.33;;
22652;SDS011;11493;43.344;26.226;2023-06-24T12:47:54;3.72;;;2.85;;
22652;SDS011;11493;43.344;26.226;2023-06-24T12:50:27;3.55;;;2.50;;
22652;SDS011;11493;43.344;26.226;2023-06-24T12:52:54;2.67;;;2.42;;
22652;SDS011;11493;43.344;26.226;2023-06-24T12:55:22;2.72;;;2.50;;
22652;SDS011;11493;43.344;26.226;2023-06-24T12:57:49;3.35;;;2.75;;
22652;SDS011;11493;43.344;26.226;2023-06-24T13:00:18;2.88;;;2.67;;
22652;SDS011;11493;43.344;26.226;2023-06-24T13:02:47;3.17;;;2.45;;
22652;SDS011;11493;43.344;26.226;2023-06-24T13:05:15;5.25;;;2.05;;
22652;SDS011;11493;43.344;26.226;2023-06-24T13:07:43;2.40;;;2.20;;
22652;SDS011;11493;43.344;26.226;2023-06-24T13:10:10;5.28;;;4.78;;
22652;SDS011;11493;43.344;26.226;2023-06-24T13:12:37;2.88;;;2.67;;
22652;SDS011;11493;43.344;26.226;2023-06-24T13:15:05;2.95;;;2.35;;
22652;SDS011;11493;43.344;26.226;2023-06-24T13:17:33;2.60;;;2.40;;
22652;SDS011;11493;43.344;26.226;2023-06-24T13:20:00;2.80;;;2.60;;
22652;SDS011;11493;43.344;26.226;2023-06-24T13:22:30;5.53;;;3.00;;
22652;SDS011;11493;43.344;26.226;2023-06-24T13:24:58;2.35;;;2.15;;
22652;SDS011;11493;43.344;26.226;2023-06-24T13:27:25;3.97;;;2.30;;
22652;SDS011;11493;43.344;26.226;2023-06-24T13:29:52;2.40;;;2.20;;
22652;SDS011;11493;43.344;26.226;2023-06-24T13:32:20;4.00;;;2.60;;
22652;SDS011;11493;43.344;26.226;2023-06-24T13:34:47;2.78;;;2.58;;
22652;SDS011;11493;43.344;26.226;2023-06-24T13:37:15;9.98;;;2.50;;
22652;SDS011;11493;43.344;26.226;2023-06-24T13:39:43;3.10;;;2.75;;
22652;SDS011;11493;43.344;26.226;2023-06-24T13:42:13;3.63;;;2.70;;
22652;SDS011;11493;43.344;26.226;2023-06-24T13:44:40;2.72;;;2.53;;
22652;SDS011;11493;43.344;26.226;2023-06-24T13:47:07;2.47;;;2.28;;
22652;SDS011;11493;43.344;26.226;2023-06-24T13:49:35;2.50;;;2.30;;
22652;SDS011;11493;43.344;26.226;2023-06-24T13:52:02;3.00;;;2.70;;
22652;SDS011;11493;43.344;26.226;2023-06-24T13:54:29;7.78;;;2.97;;
22652;SDS011;11493;43.344;26.226;2023-06-24T13:56:59;4.05;;;3.20;;
22652;SDS011;11493;43.344;26.226;2023-06-24T13:59:27;3.10;;;2.83;;
22652;SDS011;11493;43.344;26.226;2023-06-24T14:01:54;4.50;;;2.65;;
22652;SDS011;11493;43.344;26.226;2023-06-24T14:04:22;3.67;;;2.50;;
22652;SDS011;11493;43.344;26.226;2023-06-24T14:06:50;3.50;;;2.70;;
22652;SDS011;11493;43.344;26.226;2023-06-24T14:09:18;7.03;;;3.47;;
22652;SDS011;11493;43.344;26.226;2023-06-24T14:11:46;3.03;;;2.83;;
22652;SDS011;11493;43.344;26.226;2023-06-24T14:14:14;3.83;;;2.75;;
22652;SDS011;11493;43.344;26.226;2023-06-24T14:16:42;2.78;;;2.50;;
22652;SDS011;11493;43.344;26.226;2023-06-24T14:19:09;4.15;;;3.00;;
22652;SDS011;11493;43.344;26.226;2023-06-24T14:21:36;3.03;;;2.60;;
22652;SDS011;11493;43.344;26.226;2023-06-24T14:24:05;3.28;;;2.47;;
22652;SDS011;11493;43.344;26.226;2023-06-24T14:26:36;8.10;;;3.10;;
22652;SDS011;11493;43.344;26.226;2023-06-24T14:29:04;11.52;;;2.97;;
22652;SDS011;11493;43.344;26.226;2023-06-24T14:31:32;2.33;;;2.13;;
22652;SDS011;11493;43.344;26.226;2023-06-24T14:33:59;2.53;;;2.33;;
22652;SDS011;11493;43.344;26.226;2023-06-24T14:36:26;3.03;;;2.40;;
22652;SDS011;11493;43.344;26.226;2023-06-24T14:38:53;3.78;;;2.80;;
22652;SDS011;11493;43.344;26.226;2023-06-24T14:41:21;2.47;;;2.22;;
22652;SDS011;11493;43.344;26.226;2023-06-24T14:43:48;6.85;;;2.65;;
22652;SDS011;11493;43.344;26.226;2023-06-24T14:46:15;3.63;;;2.42;;
22652;SDS011;11493;43.344;26.226;2023-06-24T14:48:45;3.28;;;2.17;;
22652;SDS011;11493;43.344;26.226;2023-06-24T14:51:18;4.40;;;2.90;;
22652;SDS011;11493;43.344;26.226;2023-06-24T14:53:51;2.78;;;2.58;;
22652;SDS011;11493;43.344;26.226;2023-06-24T14:56:18;3.60;;;2.17;;
22652;SDS011;11493;43.344;26.226;2023-06-24T14:58:46;3.67;;;2.47;;
22652;SDS011;11493;43.344;26.226;2023-06-24T15:01:13;3.65;;;2.60;;
22652;SDS011;11493;43.344;26.226;2023-06-24T15:03:40;4.07;;;2.60;;
22652;SDS011;11493;43.344;26.226;2023-06-24T15:06:08;4.80;;;2.47;;
22652;SDS011;11493;43.344;26.226;2023-06-24T15:08:35;2.75;;;2.50;;
22652;SDS011;11493;43.344;26.226;2023-06-24T15:11:02;2.83;;;2.53;;
22652;SDS011;11493;43.344;26.226;2023-06-24T15:13:31;3.63;;;2.40;;